createdAt,value
2023-04-16T00:02:04.904Z,80.53
2023-04-16T00:06:29.883Z,80.45
2023-04-16T00:11:13.743Z,80.35
2023-04-16T00:15:37.449Z,80.32
2023-04-16T00:20:01.501Z,80.25
2023-04-16T00:24:48.704Z,79.73
2023-04-16T00:29:15.799Z,80.13
2023-04-16T00:33:39.748Z,80.33
2023-04-16T00:38:04.703Z,80.08
2023-04-16T00:42:23.505Z,80.07
2023-04-16T00:46:48.561Z,79.66
2023-04-16T00:51:12.549Z,79.29
2023-04-16T00:55:36.626Z,79.74
2023-04-16T01:00:21.470Z,79.99
2023-04-16T01:04:45.732Z,79.80
2023-04-16T01:09:13.006Z,79.18
2023-04-16T01:13:36.872Z,79.39
2023-04-16T01:18:00.850Z,79.40
2023-04-16T01:22:25.783Z,79.60
2023-04-16T01:26:49.588Z,79.52
2023-04-16T01:31:14.592Z,79.66
2023-04-16T01:35:47.897Z,80.18
2023-04-16T01:40:11.880Z,80.27
2023-04-16T01:44:37.279Z,79.86
2023-04-16T01:49:20.881Z,79.96
2023-04-16T01:53:44.872Z,80.44
2023-04-16T01:58:29.551Z,80.68
2023-04-16T02:02:53.833Z,80.30
2023-04-16T02:07:18.986Z,80.19
2023-04-16T02:11:43.882Z,80.29
2023-04-16T02:16:08.179Z,80.06
2023-04-16T02:20:32.358Z,79.83
2023-04-16T02:24:50.496Z,79.71
2023-04-16T02:29:16.505Z,79.65
2023-04-16T02:33:41.474Z,79.71
2023-04-16T02:38:05.389Z,80.22
2023-04-16T02:42:29.353Z,80.15
2023-04-16T02:46:53.504Z,80.30
2023-04-16T02:51:37.454Z,80.16
2023-04-16T02:56:01.713Z,80.63
2023-04-16T03:00:25.726Z,80.74
2023-04-16T03:04:49.613Z,80.70
2023-04-16T03:09:13.625Z,80.64
2023-04-16T03:13:37.470Z,80.43
2023-04-16T03:18:01.395Z,80.13
2023-04-16T03:22:25.293Z,80.34
2023-04-16T03:26:49.094Z,80.09
2023-04-16T03:31:15.961Z,80.07
2023-04-16T03:35:40.093Z,80.01
2023-04-16T03:40:05.104Z,80.08
2023-04-16T03:44:28.940Z,79.31
2023-04-16T03:48:53.146Z,78.98
2023-04-16T03:53:17.568Z,78.97
2023-04-16T03:57:41.426Z,79.61
2023-04-16T04:02:06.240Z,79.93
2023-04-16T04:06:50.095Z,80.10
2023-04-16T04:11:14.367Z,79.84
2023-04-16T04:15:38.738Z,79.27
2023-04-16T04:20:02.932Z,79.46
2023-04-16T04:24:26.878Z,79.32
2023-04-16T04:28:51.061Z,80.04
2023-04-16T04:33:15.721Z,80.47
2023-04-16T04:37:39.623Z,79.90
2023-04-16T04:42:06.536Z,79.86
2023-04-16T04:46:30.461Z,79.77
2023-04-16T04:50:54.473Z,79.90
2023-04-16T04:55:18.653Z,80.40
2023-04-16T04:59:42.472Z,80.32
2023-04-16T05:04:06.479Z,80.59
2023-04-16T05:08:34.226Z,80.49
2023-04-16T05:13:13.546Z,80.69
2023-04-16T05:18:05.325Z,80.82
2023-04-16T05:22:29.284Z,80.86
2023-04-16T05:26:53.312Z,80.72
2023-04-16T05:31:17.539Z,81.13
2023-04-16T05:35:41.647Z,81.13
2023-04-16T05:40:05.558Z,81.15
2023-04-16T05:44:29.488Z,81.27
2023-04-16T05:48:53.402Z,81.14
2023-04-16T05:53:20.299Z,81.21
2023-04-16T05:57:44.332Z,81.35
2023-04-16T06:02:08.246Z,81.47
2023-04-16T06:06:14.301Z,81.33
2023-04-16T06:10:38.137Z,81.22
2023-04-16T06:15:02.167Z,80.83
2023-04-16T06:19:26.024Z,80.97
2023-04-16T06:23:49.973Z,80.83
2023-04-16T06:28:14.901Z,80.37
2023-04-16T06:32:38.873Z,80.10
2023-04-16T06:37:02.745Z,79.33
2023-04-16T06:41:27.176Z,78.84
2023-04-16T06:45:51.222Z,77.50
2023-04-16T06:50:15.229Z,76.56
2023-04-16T06:54:39.152Z,75.57
2023-04-16T06:59:03.948Z,75.14
2023-04-16T07:03:28.791Z,75.01
2023-04-16T07:07:52.989Z,74.20
2023-04-16T07:12:16.928Z,73.08
2023-04-16T07:16:40.896Z,71.93
2023-04-16T07:21:04.830Z,71.59
2023-04-16T07:25:29.770Z,70.58
2023-04-16T07:29:53.703Z,69.73
2023-04-16T07:34:17.599Z,66.76
2023-04-16T07:38:41.583Z,67.67
2023-04-16T07:43:05.519Z,67.47
2023-04-16T07:47:29.496Z,66.66
2023-04-16T07:51:53.638Z,65.27
2023-04-16T07:56:17.653Z,63.89
2023-04-16T08:00:42.587Z,63.52
2023-04-16T08:05:06.508Z,62.82
2023-04-16T08:09:30.528Z,63.01
2023-04-16T08:13:56.657Z,62.94
2023-04-16T08:18:22.572Z,59.43
2023-04-16T08:22:46.398Z,57.14
2023-04-16T08:27:18.436Z,57.41
2023-04-16T08:31:43.655Z,58.70
2023-04-16T08:36:08.695Z,57.83
2023-04-16T08:40:32.772Z,56.49
2023-04-16T08:44:58.700Z,57.38
2023-04-16T08:49:22.661Z,57.34
2023-04-16T08:53:47.556Z,55.71
2023-04-16T08:58:11.479Z,56.46
2023-04-16T09:02:42.412Z,56.09
2023-04-16T09:06:59.323Z,56.81
2023-04-16T09:11:24.897Z,54.40
2023-04-16T09:15:48.890Z,54.62
2023-04-16T09:20:12.870Z,53.71
2023-04-16T09:24:36.813Z,55.36
2023-04-16T09:29:19.146Z,53.26
2023-04-16T09:33:58.165Z,53.74
2023-04-16T09:38:22.067Z,54.67
2023-04-16T09:42:47.498Z,54.09
2023-04-16T09:47:11.487Z,52.58
2023-04-16T09:51:35.288Z,53.37
2023-04-16T09:56:05.022Z,52.66
2023-04-16T10:00:31.272Z,53.92
2023-04-16T10:04:55.749Z,51.85
2023-04-16T10:09:18.579Z,53.01
2023-04-16T10:13:48.195Z,53.51
2023-04-16T10:18:12.123Z,52.44
2023-04-16T10:22:35.330Z,51.96
2023-04-16T10:26:59.198Z,50.95
2023-04-16T10:31:28.956Z,50.93
2023-04-16T10:36:07.034Z,50.74
2023-04-16T10:40:32.269Z,51.18
2023-04-16T10:44:59.883Z,49.28
2023-04-16T10:49:27.686Z,50.03
2023-04-16T10:54:00.476Z,49.06
2023-04-16T10:57:59.869Z,50.77
2023-04-16T11:02:33.277Z,48.89
2023-04-16T11:06:57.516Z,48.44
2023-04-16T11:11:22.609Z,49.04
2023-04-16T11:15:48.878Z,46.95
2023-04-16T11:20:32.699Z,48.00
2023-04-16T11:25:03.426Z,47.86
2023-04-16T11:29:33.473Z,46.68
2023-04-16T11:33:57.364Z,46.76
2023-04-16T11:38:06.355Z,47.14
2023-04-16T11:42:31.335Z,46.44
2023-04-16T11:47:00.673Z,45.69
2023-04-16T11:51:25.256Z,45.15
2023-04-16T11:55:52.040Z,45.06
2023-04-16T12:00:24.283Z,45.95
2023-04-16T12:04:48.869Z,45.67
2023-04-16T12:09:12.862Z,45.88
2023-04-16T12:13:51.084Z,45.92
2023-04-16T12:18:21.079Z,46.02
2023-04-16T12:22:45.987Z,45.89
2023-04-16T12:27:20.971Z,45.58
2023-04-16T12:31:51.813Z,45.76
2023-04-16T12:36:15.770Z,46.53
2023-04-16T12:40:41.808Z,46.42
2023-04-16T12:45:07.899Z,46.16
2023-04-16T12:49:37.131Z,45.09
2023-04-16T12:54:01.600Z,44.89
2023-04-16T12:58:27.097Z,44.58
2023-04-16T13:02:53.448Z,44.56
2023-04-16T13:07:18.327Z,44.50
2023-04-16T13:11:48.185Z,44.90
2023-04-16T13:16:12.267Z,45.25
2023-04-16T13:20:36.202Z,44.56
2023-04-16T13:25:00.673Z,44.30
2023-04-16T13:29:24.700Z,43.69
2023-04-16T13:33:49.939Z,43.82
2023-04-16T13:38:20.657Z,41.34
2023-04-16T13:42:44.620Z,42.55
2023-04-16T13:47:08.522Z,42.77
2023-04-16T13:51:33.715Z,42.25
2023-04-16T13:55:38.309Z,42.16
2023-04-16T14:00:02.928Z,42.65
2023-04-16T14:04:27.987Z,42.16
2023-04-16T14:08:57.673Z,42.36
2023-04-16T14:13:21.632Z,42.53
2023-04-16T14:17:46.603Z,42.01
2023-04-16T14:21:51.267Z,41.91
2023-04-16T14:26:15.240Z,42.39
2023-04-16T14:30:41.182Z,41.64
2023-04-16T14:35:07.174Z,41.93
2023-04-16T14:39:34.546Z,41.87
2023-04-16T14:44:04.133Z,41.93
2023-04-16T14:48:28.064Z,41.84
2023-04-16T14:52:52.383Z,42.35
2023-04-16T14:57:16.508Z,42.36
2023-04-16T15:01:46.770Z,42.47
2023-04-16T15:06:16.707Z,42.45
2023-04-16T15:10:44.916Z,42.82
2023-04-16T15:15:09.491Z,42.97
2023-04-16T15:19:34.775Z,42.88
2023-04-16T15:24:00.004Z,43.37
2023-04-16T15:28:26.551Z,44.42
2023-04-16T15:33:05.318Z,44.74
2023-04-16T15:37:31.256Z,45.41
2023-04-16T15:42:07.301Z,46.36
2023-04-16T15:46:31.815Z,46.82
2023-04-16T15:50:57.935Z,46.83
2023-04-16T15:55:22.130Z,47.29
2023-04-16T15:59:59.254Z,47.96
2023-04-16T16:04:42.802Z,48.36
2023-04-16T16:09:07.137Z,49.18
2023-04-16T16:13:32.014Z,49.63
2023-04-16T16:17:59.580Z,49.89
2023-04-16T16:22:25.314Z,50.30
2023-04-16T16:26:49.706Z,50.46
2023-04-16T16:31:14.536Z,50.71
2023-04-16T16:35:38.482Z,50.86
2023-04-16T16:40:03.453Z,51.18
2023-04-16T16:44:30.458Z,51.26
2023-04-16T16:48:54.316Z,51.56
2023-04-16T16:53:17.091Z,51.53
2023-04-16T16:57:43.457Z,51.28
2023-04-16T17:02:09.725Z,51.47
2023-04-16T17:06:37.026Z,51.73
2023-04-16T17:11:06.560Z,51.77
2023-04-16T17:15:33.536Z,51.53
2023-04-16T17:19:58.492Z,51.84
2023-04-16T17:24:22.531Z,51.78
2023-04-16T17:28:46.393Z,51.93
2023-04-16T17:33:10.325Z,51.94
2023-04-16T17:37:38.598Z,51.75
2023-04-16T17:42:11.063Z,51.92
2023-04-16T17:46:35.115Z,51.71
2023-04-16T17:51:11.238Z,52.24
2023-04-16T17:55:38.696Z,52.13
2023-04-16T18:00:02.756Z,52.24
2023-04-16T18:04:31.863Z,52.37
2023-04-16T18:08:58.912Z,52.50
2023-04-16T18:13:27.864Z,52.99
2023-04-16T18:17:52.836Z,53.39
2023-04-16T18:22:16.979Z,53.74
2023-04-16T18:26:41.307Z,54.40
2023-04-16T18:31:06.266Z,54.90
2023-04-16T18:35:38.042Z,54.87
2023-04-16T18:40:02.109Z,55.35
2023-04-16T18:44:35.271Z,55.59
2023-04-16T18:49:09.590Z,55.81
2023-04-16T18:53:39.887Z,55.70
2023-04-16T18:58:33.851Z,55.75
2023-04-16T19:02:55.992Z,55.83
2023-04-16T19:07:41.035Z,55.82
2023-04-16T19:12:11.961Z,55.98
2023-04-16T19:16:58.990Z,55.94
2023-04-16T19:21:26.906Z,55.99
2023-04-16T19:26:11.055Z,55.98
2023-04-16T19:30:39.753Z,55.91
2023-04-16T19:35:09.701Z,55.91
2023-04-16T19:40:01.817Z,55.96
2023-04-16T19:44:28.176Z,56.07
2023-04-16T19:48:56.609Z,56.15
2023-04-16T19:53:58.961Z,56.25
2023-04-16T19:58:27.510Z,56.32
2023-04-16T20:02:56.899Z,56.60
2023-04-16T20:07:40.960Z,56.71
2023-04-16T20:12:07.909Z,56.97
2023-04-16T20:16:32.853Z,57.07
2023-04-16T20:20:57.924Z,57.70
2023-04-16T20:25:14.990Z,57.92
2023-04-16T20:29:38.981Z,59.23
2023-04-16T20:34:03.997Z,59.39
2023-04-16T20:38:36.789Z,59.54
2023-04-16T20:43:09.565Z,59.85
2023-04-16T20:47:34.386Z,60.21
2023-04-16T20:52:01.276Z,60.36
2023-04-16T20:56:26.237Z,60.06
2023-04-16T21:00:51.384Z,59.97
2023-04-16T21:05:18.752Z,60.14
2023-04-16T21:09:44.677Z,59.93
2023-04-16T21:14:08.365Z,60.39
2023-04-16T21:18:37.838Z,60.74
2023-04-16T21:23:02.892Z,61.16
2023-04-16T21:27:27.803Z,61.00
2023-04-16T21:31:54.058Z,61.10
2023-04-16T21:36:19.144Z,61.12
2023-04-16T21:40:43.428Z,61.40
2023-04-16T21:45:08.390Z,61.74
2023-04-16T21:49:32.522Z,61.90
2023-04-16T21:53:57.905Z,62.47
2023-04-16T21:58:22.921Z,62.52
2023-04-16T22:02:47.071Z,62.53
2023-04-16T22:07:12.450Z,63.19
2023-04-16T22:11:36.908Z,63.10
2023-04-16T22:16:11.683Z,63.28
2023-04-16T22:20:37.041Z,63.32
2023-04-16T22:25:02.347Z,63.34
2023-04-16T22:29:26.766Z,63.56
2023-04-16T22:33:50.776Z,63.59
2023-04-16T22:38:37.129Z,63.21
2023-04-16T22:43:10.435Z,63.15
2023-04-16T22:47:38.558Z,63.01
2023-04-16T22:52:27.906Z,62.67
2023-04-16T22:57:01.382Z,62.50
2023-04-16T23:01:28.110Z,62.59
2023-04-16T23:05:54.117Z,62.62
2023-04-16T23:10:21.080Z,62.36
2023-04-16T23:14:46.211Z,62.38
2023-04-16T23:19:10.497Z,62.22
2023-04-16T23:23:34.815Z,62.31
2023-04-16T23:28:00.834Z,62.02
2023-04-16T23:32:25.141Z,61.98
2023-04-16T23:36:49.453Z,62.03
2023-04-16T23:41:13.115Z,62.18
2023-04-16T23:45:36.992Z,62.45
2023-04-16T23:50:02.986Z,62.52
2023-04-16T23:54:35.929Z,62.24
2023-04-16T23:59:00.828Z,62.35
